sensor_id;sensor_type;location;lat;lon;timestamp;P1;durP1;ratioP1;P2;durP2;ratioP2
19111;SDS011;9688;51.906;8.376;2023-04-16T00:02:42;56.87;;;27.20;;
19111;SDS011;9688;51.906;8.376;2023-04-16T00:05:28;55.40;;;27.03;;
19111;SDS011;9688;51.906;8.376;2023-04-16T00:08:14;53.53;;;27.03;;
19111;SDS011;9688;51.906;8.376;2023-04-16T00:10:59;55.57;;;26.53;;
19111;SDS011;9688;51.906;8.376;2023-04-16T00:13:46;59.80;;;27.90;;
19111;SDS011;9688;51.906;8.376;2023-04-16T00:16:33;63.70;;;27.53;;
19111;SDS011;9688;51.906;8.376;2023-04-16T00:19:21;54.77;;;27.63;;
19111;SDS011;9688;51.906;8.376;2023-04-16T00:22:07;55.60;;;27.03;;
19111;SDS011;9688;51.906;8.376;2023-04-16T00:24:52;54.17;;;27.23;;
19111;SDS011;9688;51.906;8.376;2023-04-16T00:27:39;56.70;;;26.40;;
19111;SDS011;9688;51.906;8.376;2023-04-16T00:30:24;54.17;;;26.23;;
19111;SDS011;9688;51.906;8.376;2023-04-16T00:33:10;58.17;;;27.83;;
19111;SDS011;9688;51.906;8.376;2023-04-16T00:35:56;56.03;;;28.03;;
19111;SDS011;9688;51.906;8.376;2023-04-16T00:38:42;51.23;;;26.77;;
19111;SDS011;9688;51.906;8.376;2023-04-16T00:41:27;57.53;;;28.03;;
19111;SDS011;9688;51.906;8.376;2023-04-16T00:44:13;53.57;;;26.73;;
19111;SDS011;9688;51.906;8.376;2023-04-16T00:46:58;56.67;;;26.37;;
19111;SDS011;9688;51.906;8.376;2023-04-16T00:49:44;56.43;;;27.97;;
19111;SDS011;9688;51.906;8.376;2023-04-16T00:52:31;59.57;;;27.63;;
19111;SDS011;9688;51.906;8.376;2023-04-16T00:55:18;54.33;;;27.37;;
19111;SDS011;9688;51.906;8.376;2023-04-16T00:58:05;51.63;;;26.10;;
19111;SDS011;9688;51.906;8.376;2023-04-16T01:00:50;58.47;;;27.60;;
19111;SDS011;9688;51.906;8.376;2023-04-16T01:03:37;51.47;;;26.37;;
19111;SDS011;9688;51.906;8.376;2023-04-16T01:06:24;53.77;;;26.93;;
19111;SDS011;9688;51.906;8.376;2023-04-16T01:09:12;52.40;;;27.97;;
19111;SDS011;9688;51.906;8.376;2023-04-16T01:11:57;55.57;;;28.57;;
19111;SDS011;9688;51.906;8.376;2023-04-16T01:14:42;56.60;;;27.87;;
19111;SDS011;9688;51.906;8.376;2023-04-16T01:17:28;55.87;;;28.13;;
19111;SDS011;9688;51.906;8.376;2023-04-16T01:20:14;61.37;;;29.03;;
19111;SDS011;9688;51.906;8.376;2023-04-16T01:23:01;52.27;;;27.90;;
19111;SDS011;9688;51.906;8.376;2023-04-16T01:25:48;56.70;;;29.20;;
19111;SDS011;9688;51.906;8.376;2023-04-16T01:28:33;57.90;;;29.40;;
19111;SDS011;9688;51.906;8.376;2023-04-16T01:31:19;62.63;;;28.43;;
19111;SDS011;9688;51.906;8.376;2023-04-16T01:34:05;52.17;;;27.43;;
19111;SDS011;9688;51.906;8.376;2023-04-16T01:36:50;52.20;;;27.17;;
19111;SDS011;9688;51.906;8.376;2023-04-16T01:39:37;58.20;;;28.60;;
19111;SDS011;9688;51.906;8.376;2023-04-16T01:42:23;58.23;;;29.47;;
19111;SDS011;9688;51.906;8.376;2023-04-16T01:45:09;54.33;;;28.50;;
19111;SDS011;9688;51.906;8.376;2023-04-16T01:47:55;56.53;;;29.67;;
19111;SDS011;9688;51.906;8.376;2023-04-16T01:50:41;52.90;;;29.53;;
19111;SDS011;9688;51.906;8.376;2023-04-16T01:53:26;58.70;;;29.73;;
19111;SDS011;9688;51.906;8.376;2023-04-16T01:56:14;63.90;;;29.90;;
19111;SDS011;9688;51.906;8.376;2023-04-16T01:59:01;55.17;;;30.23;;
19111;SDS011;9688;51.906;8.376;2023-04-16T02:01:47;59.67;;;29.80;;
19111;SDS011;9688;51.906;8.376;2023-04-16T02:04:32;60.87;;;30.97;;
19111;SDS011;9688;51.906;8.376;2023-04-16T02:07:18;56.27;;;28.87;;
19111;SDS011;9688;51.906;8.376;2023-04-16T02:10:04;59.27;;;30.20;;
19111;SDS011;9688;51.906;8.376;2023-04-16T02:12:53;53.77;;;28.97;;
19111;SDS011;9688;51.906;8.376;2023-04-16T02:15:39;60.43;;;31.50;;
19111;SDS011;9688;51.906;8.376;2023-04-16T02:18:28;55.83;;;29.70;;
19111;SDS011;9688;51.906;8.376;2023-04-16T02:21:13;60.37;;;29.67;;
19111;SDS011;9688;51.906;8.376;2023-04-16T02:23:58;57.77;;;30.30;;
19111;SDS011;9688;51.906;8.376;2023-04-16T02:26:44;59.13;;;30.40;;
19111;SDS011;9688;51.906;8.376;2023-04-16T02:29:31;56.50;;;29.80;;
19111;SDS011;9688;51.906;8.376;2023-04-16T02:32:17;59.47;;;30.47;;
19111;SDS011;9688;51.906;8.376;2023-04-16T02:35:02;56.13;;;28.53;;
19111;SDS011;9688;51.906;8.376;2023-04-16T02:37:48;60.17;;;30.10;;
19111;SDS011;9688;51.906;8.376;2023-04-16T02:40:34;59.90;;;29.30;;
19111;SDS011;9688;51.906;8.376;2023-04-16T02:43:20;59.37;;;28.70;;
19111;SDS011;9688;51.906;8.376;2023-04-16T02:46:07;49.33;;;28.97;;
19111;SDS011;9688;51.906;8.376;2023-04-16T02:48:52;52.77;;;29.70;;
19111;SDS011;9688;51.906;8.376;2023-04-16T02:51:38;54.63;;;28.70;;
19111;SDS011;9688;51.906;8.376;2023-04-16T02:54:24;55.10;;;28.60;;
19111;SDS011;9688;51.906;8.376;2023-04-16T02:57:09;51.40;;;28.43;;
19111;SDS011;9688;51.906;8.376;2023-04-16T02:59:55;55.37;;;29.73;;
19111;SDS011;9688;51.906;8.376;2023-04-16T03:02:42;48.13;;;28.57;;
19111;SDS011;9688;51.906;8.376;2023-04-16T03:05:28;50.20;;;28.97;;
19111;SDS011;9688;51.906;8.376;2023-04-16T03:08:29;50.33;;;28.20;;
19111;SDS011;9688;51.906;8.376;2023-04-16T03:11:15;55.63;;;29.53;;
19111;SDS011;9688;51.906;8.376;2023-04-16T03:14:00;55.43;;;29.20;;
19111;SDS011;9688;51.906;8.376;2023-04-16T03:16:45;54.13;;;28.67;;
19111;SDS011;9688;51.906;8.376;2023-04-16T03:19:32;59.03;;;29.60;;
19111;SDS011;9688;51.906;8.376;2023-04-16T03:22:17;53.87;;;30.23;;
19111;SDS011;9688;51.906;8.376;2023-04-16T03:25:04;51.90;;;28.17;;
19111;SDS011;9688;51.906;8.376;2023-04-16T03:27:50;56.27;;;29.30;;
19111;SDS011;9688;51.906;8.376;2023-04-16T03:30:35;54.83;;;30.07;;
19111;SDS011;9688;51.906;8.376;2023-04-16T03:33:21;58.17;;;30.73;;
19111;SDS011;9688;51.906;8.376;2023-04-16T03:36:09;57.60;;;30.47;;
19111;SDS011;9688;51.906;8.376;2023-04-16T03:38:55;61.13;;;30.60;;
19111;SDS011;9688;51.906;8.376;2023-04-16T03:41:40;56.20;;;29.87;;
19111;SDS011;9688;51.906;8.376;2023-04-16T03:44:25;54.70;;;29.97;;
19111;SDS011;9688;51.906;8.376;2023-04-16T03:47:11;56.53;;;29.60;;
19111;SDS011;9688;51.906;8.376;2023-04-16T03:49:56;54.40;;;29.03;;
19111;SDS011;9688;51.906;8.376;2023-04-16T03:52:43;58.47;;;30.53;;
19111;SDS011;9688;51.906;8.376;2023-04-16T03:55:29;57.93;;;30.40;;
19111;SDS011;9688;51.906;8.376;2023-04-16T03:58:15;56.43;;;31.03;;
19111;SDS011;9688;51.906;8.376;2023-04-16T04:01:00;51.20;;;28.90;;
19111;SDS011;9688;51.906;8.376;2023-04-16T04:03:46;60.63;;;31.93;;
19111;SDS011;9688;51.906;8.376;2023-04-16T04:06:31;53.10;;;29.93;;
19111;SDS011;9688;51.906;8.376;2023-04-16T04:09:18;54.67;;;29.80;;
19111;SDS011;9688;51.906;8.376;2023-04-16T04:12:04;60.10;;;31.83;;
19111;SDS011;9688;51.906;8.376;2023-04-16T04:14:49;60.07;;;32.37;;
19111;SDS011;9688;51.906;8.376;2023-04-16T04:17:35;61.23;;;30.63;;
19111;SDS011;9688;51.906;8.376;2023-04-16T04:20:20;51.27;;;30.07;;
19111;SDS011;9688;51.906;8.376;2023-04-16T04:23:06;57.73;;;31.07;;
19111;SDS011;9688;51.906;8.376;2023-04-16T04:25:53;59.40;;;30.87;;
19111;SDS011;9688;51.906;8.376;2023-04-16T04:28:39;59.43;;;31.63;;
19111;SDS011;9688;51.906;8.376;2023-04-16T04:31:25;56.87;;;31.20;;
19111;SDS011;9688;51.906;8.376;2023-04-16T04:34:12;53.43;;;30.03;;
19111;SDS011;9688;51.906;8.376;2023-04-16T04:36:57;55.10;;;30.13;;
19111;SDS011;9688;51.906;8.376;2023-04-16T04:39:43;54.77;;;29.90;;
19111;SDS011;9688;51.906;8.376;2023-04-16T04:42:33;49.47;;;28.97;;
19111;SDS011;9688;51.906;8.376;2023-04-16T04:45:19;51.30;;;29.10;;
19111;SDS011;9688;51.906;8.376;2023-04-16T04:48:08;56.10;;;31.27;;
19111;SDS011;9688;51.906;8.376;2023-04-16T04:50:54;56.80;;;31.20;;
19111;SDS011;9688;51.906;8.376;2023-04-16T04:53:39;50.70;;;28.80;;
19111;SDS011;9688;51.906;8.376;2023-04-16T04:56:26;53.80;;;30.37;;
19111;SDS011;9688;51.906;8.376;2023-04-16T04:59:13;52.40;;;30.83;;
19111;SDS011;9688;51.906;8.376;2023-04-16T05:02:01;54.13;;;30.90;;
19111;SDS011;9688;51.906;8.376;2023-04-16T05:04:46;51.87;;;29.50;;
19111;SDS011;9688;51.906;8.376;2023-04-16T05:07:32;60.17;;;30.67;;
19111;SDS011;9688;51.906;8.376;2023-04-16T05:10:18;56.33;;;30.90;;
19111;SDS011;9688;51.906;8.376;2023-04-16T05:13:06;56.60;;;31.00;;
19111;SDS011;9688;51.906;8.376;2023-04-16T05:15:53;54.03;;;30.50;;
19111;SDS011;9688;51.906;8.376;2023-04-16T05:18:39;53.30;;;29.20;;
19111;SDS011;9688;51.906;8.376;2023-04-16T05:21:24;52.33;;;29.37;;
19111;SDS011;9688;51.906;8.376;2023-04-16T05:24:10;52.23;;;27.17;;
19111;SDS011;9688;51.906;8.376;2023-04-16T05:26:56;50.07;;;27.77;;
19111;SDS011;9688;51.906;8.376;2023-04-16T05:29:41;54.37;;;29.83;;
19111;SDS011;9688;51.906;8.376;2023-04-16T05:32:34;55.00;;;29.60;;
19111;SDS011;9688;51.906;8.376;2023-04-16T05:35:19;49.13;;;27.90;;
19111;SDS011;9688;51.906;8.376;2023-04-16T05:38:05;53.93;;;30.53;;
19111;SDS011;9688;51.906;8.376;2023-04-16T05:40:51;52.30;;;28.60;;
19111;SDS011;9688;51.906;8.376;2023-04-16T05:43:36;52.60;;;28.50;;
19111;SDS011;9688;51.906;8.376;2023-04-16T05:46:22;53.07;;;29.40;;
19111;SDS011;9688;51.906;8.376;2023-04-16T05:49:09;54.00;;;29.83;;
19111;SDS011;9688;51.906;8.376;2023-04-16T05:51:55;49.80;;;28.37;;
19111;SDS011;9688;51.906;8.376;2023-04-16T05:54:41;52.50;;;29.30;;
19111;SDS011;9688;51.906;8.376;2023-04-16T05:57:26;53.53;;;28.73;;
19111;SDS011;9688;51.906;8.376;2023-04-16T06:00:14;57.87;;;29.80;;
19111;SDS011;9688;51.906;8.376;2023-04-16T06:02:59;53.60;;;28.47;;
19111;SDS011;9688;51.906;8.376;2023-04-16T06:05:48;51.03;;;27.83;;
19111;SDS011;9688;51.906;8.376;2023-04-16T06:08:33;52.40;;;28.93;;
19111;SDS011;9688;51.906;8.376;2023-04-16T06:11:19;52.70;;;29.20;;
19111;SDS011;9688;51.906;8.376;2023-04-16T06:14:05;54.33;;;29.23;;
19111;SDS011;9688;51.906;8.376;2023-04-16T06:16:51;50.03;;;28.27;;
19111;SDS011;9688;51.906;8.376;2023-04-16T06:19:36;49.77;;;28.23;;
19111;SDS011;9688;51.906;8.376;2023-04-16T06:22:23;52.47;;;28.53;;
19111;SDS011;9688;51.906;8.376;2023-04-16T06:25:09;49.30;;;27.43;;
19111;SDS011;9688;51.906;8.376;2023-04-16T06:27:55;54.43;;;29.83;;
19111;SDS011;9688;51.906;8.376;2023-04-16T06:30:40;57.97;;;31.03;;
19111;SDS011;9688;51.906;8.376;2023-04-16T06:33:26;53.10;;;29.67;;
19111;SDS011;9688;51.906;8.376;2023-04-16T06:36:11;58.80;;;30.80;;
19111;SDS011;9688;51.906;8.376;2023-04-16T06:38:58;55.27;;;29.07;;
19111;SDS011;9688;51.906;8.376;2023-04-16T06:41:44;61.10;;;30.23;;
19111;SDS011;9688;51.906;8.376;2023-04-16T06:44:29;54.77;;;28.90;;
19111;SDS011;9688;51.906;8.376;2023-04-16T06:47:15;52.90;;;29.07;;
19111;SDS011;9688;51.906;8.376;2023-04-16T06:50:00;52.63;;;29.40;;
19111;SDS011;9688;51.906;8.376;2023-04-16T06:52:49;50.60;;;29.50;;
19111;SDS011;9688;51.906;8.376;2023-04-16T06:55:35;53.13;;;29.13;;
19111;SDS011;9688;51.906;8.376;2023-04-16T06:58:21;52.97;;;28.10;;
19111;SDS011;9688;51.906;8.376;2023-04-16T07:01:07;53.90;;;28.37;;
19111;SDS011;9688;51.906;8.376;2023-04-16T07:03:52;52.07;;;27.90;;
19111;SDS011;9688;51.906;8.376;2023-04-16T07:06:38;52.83;;;26.87;;
19111;SDS011;9688;51.906;8.376;2023-04-16T07:09:24;46.80;;;26.93;;
19111;SDS011;9688;51.906;8.376;2023-04-16T07:12:12;54.93;;;29.27;;
19111;SDS011;9688;51.906;8.376;2023-04-16T07:14:57;47.67;;;27.30;;
19111;SDS011;9688;51.906;8.376;2023-04-16T07:17:43;55.47;;;28.00;;
19111;SDS011;9688;51.906;8.376;2023-04-16T07:20:29;48.13;;;25.83;;
19111;SDS011;9688;51.906;8.376;2023-04-16T07:23:14;48.50;;;25.97;;
19111;SDS011;9688;51.906;8.376;2023-04-16T07:26:00;42.63;;;24.63;;
19111;SDS011;9688;51.906;8.376;2023-04-16T07:28:47;48.73;;;25.17;;
19111;SDS011;9688;51.906;8.376;2023-04-16T07:31:33;44.73;;;25.40;;
19111;SDS011;9688;51.906;8.376;2023-04-16T07:34:19;45.30;;;25.60;;
19111;SDS011;9688;51.906;8.376;2023-04-16T07:37:05;42.73;;;24.80;;
19111;SDS011;9688;51.906;8.376;2023-04-16T07:39:51;38.87;;;23.30;;
19111;SDS011;9688;51.906;8.376;2023-04-16T07:42:39;39.07;;;23.60;;
19111;SDS011;9688;51.906;8.376;2023-04-16T07:45:29;39.90;;;23.07;;
19111;SDS011;9688;51.906;8.376;2023-04-16T07:48:15;43.37;;;24.17;;
19111;SDS011;9688;51.906;8.376;2023-04-16T07:51:00;42.27;;;23.33;;
19111;SDS011;9688;51.906;8.376;2023-04-16T07:53:46;35.77;;;22.60;;
19111;SDS011;9688;51.906;8.376;2023-04-16T07:56:32;37.43;;;21.87;;
19111;SDS011;9688;51.906;8.376;2023-04-16T07:59:20;35.27;;;21.37;;
19111;SDS011;9688;51.906;8.376;2023-04-16T08:02:08;36.20;;;21.30;;
19111;SDS011;9688;51.906;8.376;2023-04-16T08:04:57;38.43;;;22.00;;
19111;SDS011;9688;51.906;8.376;2023-04-16T08:07:43;37.50;;;22.03;;
19111;SDS011;9688;51.906;8.376;2023-04-16T08:10:29;36.20;;;21.53;;
19111;SDS011;9688;51.906;8.376;2023-04-16T08:13:15;35.87;;;20.80;;
19111;SDS011;9688;51.906;8.376;2023-04-16T08:16:00;34.50;;;20.73;;
19111;SDS011;9688;51.906;8.376;2023-04-16T08:18:47;36.40;;;21.37;;
19111;SDS011;9688;51.906;8.376;2023-04-16T08:21:33;35.47;;;19.70;;
19111;SDS011;9688;51.906;8.376;2023-04-16T08:24:19;31.87;;;19.80;;
19111;SDS011;9688;51.906;8.376;2023-04-16T08:27:04;33.27;;;19.70;;
19111;SDS011;9688;51.906;8.376;2023-04-16T08:29:51;32.83;;;19.80;;
19111;SDS011;9688;51.906;8.376;2023-04-16T08:32:36;35.17;;;20.13;;
19111;SDS011;9688;51.906;8.376;2023-04-16T08:35:23;31.10;;;18.90;;
19111;SDS011;9688;51.906;8.376;2023-04-16T08:38:10;36.93;;;20.13;;
19111;SDS011;9688;51.906;8.376;2023-04-16T08:40:56;33.83;;;19.60;;
19111;SDS011;9688;51.906;8.376;2023-04-16T08:43:47;37.50;;;20.40;;
19111;SDS011;9688;51.906;8.376;2023-04-16T08:46:35;32.10;;;19.63;;
19111;SDS011;9688;51.906;8.376;2023-04-16T08:49:21;34.93;;;20.87;;
19111;SDS011;9688;51.906;8.376;2023-04-16T08:52:10;35.27;;;20.53;;
19111;SDS011;9688;51.906;8.376;2023-04-16T08:55:01;32.13;;;18.80;;
19111;SDS011;9688;51.906;8.376;2023-04-16T08:57:51;35.13;;;21.03;;
19111;SDS011;9688;51.906;8.376;2023-04-16T09:00:41;32.00;;;19.37;;
19111;SDS011;9688;51.906;8.376;2023-04-16T09:03:29;30.80;;;19.63;;
19111;SDS011;9688;51.906;8.376;2023-04-16T09:06:16;33.63;;;19.50;;
19111;SDS011;9688;51.906;8.376;2023-04-16T09:09:04;32.03;;;19.67;;
19111;SDS011;9688;51.906;8.376;2023-04-16T09:11:51;28.53;;;19.03;;
19111;SDS011;9688;51.906;8.376;2023-04-16T09:14:38;32.43;;;20.10;;
19111;SDS011;9688;51.906;8.376;2023-04-16T09:17:25;34.17;;;19.40;;
19111;SDS011;9688;51.906;8.376;2023-04-16T09:20:11;30.10;;;19.20;;
19111;SDS011;9688;51.906;8.376;2023-04-16T09:22:59;32.67;;;19.90;;
19111;SDS011;9688;51.906;8.376;2023-04-16T09:25:46;32.47;;;19.03;;
19111;SDS011;9688;51.906;8.376;2023-04-16T09:28:38;29.90;;;18.97;;
19111;SDS011;9688;51.906;8.376;2023-04-16T09:31:25;31.20;;;19.40;;
19111;SDS011;9688;51.906;8.376;2023-04-16T09:34:11;31.40;;;18.70;;
19111;SDS011;9688;51.906;8.376;2023-04-16T09:37:08;29.93;;;18.43;;
19111;SDS011;9688;51.906;8.376;2023-04-16T09:40:01;28.07;;;18.10;;
19111;SDS011;9688;51.906;8.376;2023-04-16T09:42:53;31.23;;;18.57;;
19111;SDS011;9688;51.906;8.376;2023-04-16T09:45:48;31.13;;;19.30;;
19111;SDS011;9688;51.906;8.376;2023-04-16T09:48:34;30.37;;;18.47;;
19111;SDS011;9688;51.906;8.376;2023-04-16T09:51:21;29.87;;;18.63;;
19111;SDS011;9688;51.906;8.376;2023-04-16T09:54:07;35.37;;;19.37;;
19111;SDS011;9688;51.906;8.376;2023-04-16T09:56:55;30.00;;;18.73;;
19111;SDS011;9688;51.906;8.376;2023-04-16T09:59:44;29.77;;;18.73;;
19111;SDS011;9688;51.906;8.376;2023-04-16T10:02:35;30.80;;;18.80;;
19111;SDS011;9688;51.906;8.376;2023-04-16T10:05:25;33.43;;;19.10;;
19111;SDS011;9688;51.906;8.376;2023-04-16T10:08:14;30.50;;;19.23;;
19111;SDS011;9688;51.906;8.376;2023-04-16T10:11:01;33.80;;;18.40;;
19111;SDS011;9688;51.906;8.376;2023-04-16T10:13:48;30.67;;;18.93;;
19111;SDS011;9688;51.906;8.376;2023-04-16T10:16:35;31.10;;;18.87;;
19111;SDS011;9688;51.906;8.376;2023-04-16T10:19:23;30.23;;;17.73;;
19111;SDS011;9688;51.906;8.376;2023-04-16T10:22:09;32.90;;;18.90;;
19111;SDS011;9688;51.906;8.376;2023-04-16T10:24:56;30.50;;;18.33;;
19111;SDS011;9688;51.906;8.376;2023-04-16T10:27:43;36.23;;;18.80;;
19111;SDS011;9688;51.906;8.376;2023-04-16T10:30:29;29.73;;;18.97;;
19111;SDS011;9688;51.906;8.376;2023-04-16T10:33:20;29.87;;;17.77;;
19111;SDS011;9688;51.906;8.376;2023-04-16T10:36:06;32.17;;;19.23;;
19111;SDS011;9688;51.906;8.376;2023-04-16T10:38:56;31.90;;;18.17;;
19111;SDS011;9688;51.906;8.376;2023-04-16T10:41:45;28.43;;;18.57;;
19111;SDS011;9688;51.906;8.376;2023-04-16T10:44:30;32.20;;;18.60;;
19111;SDS011;9688;51.906;8.376;2023-04-16T10:47:16;32.20;;;18.00;;
19111;SDS011;9688;51.906;8.376;2023-04-16T10:50:14;32.53;;;18.87;;
19111;SDS011;9688;51.906;8.376;2023-04-16T10:53:19;31.30;;;18.43;;
19111;SDS011;9688;51.906;8.376;2023-04-16T10:56:10;30.77;;;17.73;;
19111;SDS011;9688;51.906;8.376;2023-04-16T10:58:56;27.13;;;17.27;;
19111;SDS011;9688;51.906;8.376;2023-04-16T11:01:43;32.63;;;17.93;;
19111;SDS011;9688;51.906;8.376;2023-04-16T11:04:32;30.80;;;18.60;;
19111;SDS011;9688;51.906;8.376;2023-04-16T11:07:21;33.03;;;18.93;;
19111;SDS011;9688;51.906;8.376;2023-04-16T11:10:18;30.67;;;18.13;;
19111;SDS011;9688;51.906;8.376;2023-04-16T11:13:04;28.30;;;18.23;;
19111;SDS011;9688;51.906;8.376;2023-04-16T11:15:50;27.57;;;17.77;;
19111;SDS011;9688;51.906;8.376;2023-04-16T11:18:39;31.40;;;18.43;;
19111;SDS011;9688;51.906;8.376;2023-04-16T11:21:25;29.07;;;19.10;;
19111;SDS011;9688;51.906;8.376;2023-04-16T11:24:12;37.07;;;19.60;;
19111;SDS011;9688;51.906;8.376;2023-04-16T11:26:59;31.27;;;19.27;;
19111;SDS011;9688;51.906;8.376;2023-04-16T11:29:46;31.97;;;19.03;;
19111;SDS011;9688;51.906;8.376;2023-04-16T11:32:42;33.10;;;18.30;;
19111;SDS011;9688;51.906;8.376;2023-04-16T11:35:28;36.10;;;18.23;;
19111;SDS011;9688;51.906;8.376;2023-04-16T11:38:17;29.43;;;19.07;;
19111;SDS011;9688;51.906;8.376;2023-04-16T11:41:06;30.93;;;19.10;;
19111;SDS011;9688;51.906;8.376;2023-04-16T11:43:54;31.20;;;19.03;;
19111;SDS011;9688;51.906;8.376;2023-04-16T11:46:40;31.37;;;19.17;;
19111;SDS011;9688;51.906;8.376;2023-04-16T11:49:26;29.07;;;18.00;;
19111;SDS011;9688;51.906;8.376;2023-04-16T11:52:14;32.87;;;19.20;;
19111;SDS011;9688;51.906;8.376;2023-04-16T11:55:10;29.40;;;19.17;;
19111;SDS011;9688;51.906;8.376;2023-04-16T11:58:04;30.63;;;18.73;;
19111;SDS011;9688;51.906;8.376;2023-04-16T12:00:55;36.57;;;19.17;;
19111;SDS011;9688;51.906;8.376;2023-04-16T12:03:45;33.23;;;19.53;;
19111;SDS011;9688;51.906;8.376;2023-04-16T12:06:36;35.50;;;19.77;;
19111;SDS011;9688;51.906;8.376;2023-04-16T12:09:23;37.37;;;20.07;;
19111;SDS011;9688;51.906;8.376;2023-04-16T12:12:25;34.43;;;19.60;;
19111;SDS011;9688;51.906;8.376;2023-04-16T12:15:14;31.90;;;19.23;;
19111;SDS011;9688;51.906;8.376;2023-04-16T12:18:09;31.60;;;18.63;;
19111;SDS011;9688;51.906;8.376;2023-04-16T12:20:55;29.63;;;19.13;;
19111;SDS011;9688;51.906;8.376;2023-04-16T12:23:40;28.57;;;18.47;;
19111;SDS011;9688;51.906;8.376;2023-04-16T12:26:26;30.90;;;19.20;;
19111;SDS011;9688;51.906;8.376;2023-04-16T12:29:15;30.33;;;18.60;;
19111;SDS011;9688;51.906;8.376;2023-04-16T12:32:03;30.03;;;18.67;;
19111;SDS011;9688;51.906;8.376;2023-04-16T12:34:49;37.03;;;19.70;;
19111;SDS011;9688;51.906;8.376;2023-04-16T12:37:35;29.07;;;17.63;;
19111;SDS011;9688;51.906;8.376;2023-04-16T12:40:21;32.83;;;18.37;;
19111;SDS011;9688;51.906;8.376;2023-04-16T12:43:07;28.80;;;18.53;;
19111;SDS011;9688;51.906;8.376;2023-04-16T12:45:56;31.47;;;19.07;;
19111;SDS011;9688;51.906;8.376;2023-04-16T12:48:43;33.03;;;18.80;;
19111;SDS011;9688;51.906;8.376;2023-04-16T12:51:28;30.43;;;18.10;;
19111;SDS011;9688;51.906;8.376;2023-04-16T12:54:15;31.03;;;18.17;;
19111;SDS011;9688;51.906;8.376;2023-04-16T12:57:00;29.80;;;18.07;;
19111;SDS011;9688;51.906;8.376;2023-04-16T12:59:46;27.93;;;18.07;;
19111;SDS011;9688;51.906;8.376;2023-04-16T13:02:32;31.10;;;18.73;;
19111;SDS011;9688;51.906;8.376;2023-04-16T13:05:19;29.33;;;18.03;;
19111;SDS011;9688;51.906;8.376;2023-04-16T13:08:05;27.83;;;18.70;;
19111;SDS011;9688;51.906;8.376;2023-04-16T13:10:51;29.07;;;17.73;;
19111;SDS011;9688;51.906;8.376;2023-04-16T13:13:37;27.73;;;17.63;;
19111;SDS011;9688;51.906;8.376;2023-04-16T13:16:23;29.53;;;18.10;;
19111;SDS011;9688;51.906;8.376;2023-04-16T13:19:09;27.83;;;16.67;;
19111;SDS011;9688;51.906;8.376;2023-04-16T13:21:56;29.33;;;17.83;;
19111;SDS011;9688;51.906;8.376;2023-04-16T13:24:43;25.83;;;16.80;;
19111;SDS011;9688;51.906;8.376;2023-04-16T13:27:29;28.27;;;17.80;;
19111;SDS011;9688;51.906;8.376;2023-04-16T13:30:17;30.23;;;16.57;;
19111;SDS011;9688;51.906;8.376;2023-04-16T13:33:05;32.60;;;17.97;;
19111;SDS011;9688;51.906;8.376;2023-04-16T13:35:51;26.07;;;16.67;;
19111;SDS011;9688;51.906;8.376;2023-04-16T13:38:39;27.47;;;16.70;;
19111;SDS011;9688;51.906;8.376;2023-04-16T13:41:26;25.57;;;16.40;;
19111;SDS011;9688;51.906;8.376;2023-04-16T13:44:12;26.07;;;16.10;;
19111;SDS011;9688;51.906;8.376;2023-04-16T13:46:59;30.63;;;16.73;;
19111;SDS011;9688;51.906;8.376;2023-04-16T13:49:45;27.63;;;16.70;;
19111;SDS011;9688;51.906;8.376;2023-04-16T13:52:31;28.13;;;16.47;;
19111;SDS011;9688;51.906;8.376;2023-04-16T13:55:18;27.57;;;16.43;;
19111;SDS011;9688;51.906;8.376;2023-04-16T13:58:04;24.33;;;15.30;;
19111;SDS011;9688;51.906;8.376;2023-04-16T14:00:51;23.83;;;15.77;;
19111;SDS011;9688;51.906;8.376;2023-04-16T14:03:37;22.27;;;15.47;;
19111;SDS011;9688;51.906;8.376;2023-04-16T14:06:24;24.87;;;15.97;;
19111;SDS011;9688;51.906;8.376;2023-04-16T14:09:10;24.67;;;15.57;;
19111;SDS011;9688;51.906;8.376;2023-04-16T14:11:57;24.20;;;15.37;;
19111;SDS011;9688;51.906;8.376;2023-04-16T14:14:43;22.20;;;15.33;;
19111;SDS011;9688;51.906;8.376;2023-04-16T14:17:29;25.93;;;15.10;;
19111;SDS011;9688;51.906;8.376;2023-04-16T14:20:15;27.73;;;15.77;;
19111;SDS011;9688;51.906;8.376;2023-04-16T14:23:01;25.23;;;15.60;;
19111;SDS011;9688;51.906;8.376;2023-04-16T14:25:47;21.83;;;15.07;;
19111;SDS011;9688;51.906;8.376;2023-04-16T14:28:34;21.50;;;14.43;;
19111;SDS011;9688;51.906;8.376;2023-04-16T14:31:22;19.80;;;14.97;;
19111;SDS011;9688;51.906;8.376;2023-04-16T14:34:09;23.30;;;15.27;;
19111;SDS011;9688;51.906;8.376;2023-04-16T14:36:55;25.37;;;15.50;;
19111;SDS011;9688;51.906;8.376;2023-04-16T14:39:41;26.73;;;15.00;;
19111;SDS011;9688;51.906;8.376;2023-04-16T14:42:31;22.97;;;15.07;;
19111;SDS011;9688;51.906;8.376;2023-04-16T14:45:18;26.73;;;15.33;;
19111;SDS011;9688;51.906;8.376;2023-04-16T14:48:04;28.47;;;16.47;;
19111;SDS011;9688;51.906;8.376;2023-04-16T14:50:50;24.53;;;14.90;;
19111;SDS011;9688;51.906;8.376;2023-04-16T14:53:35;21.00;;;14.43;;
19111;SDS011;9688;51.906;8.376;2023-04-16T14:56:21;24.37;;;14.43;;
19111;SDS011;9688;51.906;8.376;2023-04-16T14:59:07;20.13;;;14.00;;
19111;SDS011;9688;51.906;8.376;2023-04-16T15:01:55;23.63;;;15.00;;
19111;SDS011;9688;51.906;8.376;2023-04-16T15:04:41;22.57;;;14.00;;
19111;SDS011;9688;51.906;8.376;2023-04-16T15:07:27;22.53;;;14.83;;
19111;SDS011;9688;51.906;8.376;2023-04-16T15:10:16;21.80;;;14.40;;
19111;SDS011;9688;51.906;8.376;2023-04-16T15:13:04;24.13;;;14.70;;
19111;SDS011;9688;51.906;8.376;2023-04-16T15:15:50;20.73;;;13.57;;
19111;SDS011;9688;51.906;8.376;2023-04-16T15:18:40;21.90;;;14.50;;
19111;SDS011;9688;51.906;8.376;2023-04-16T15:21:25;21.33;;;14.87;;
19111;SDS011;9688;51.906;8.376;2023-04-16T15:24:12;22.60;;;14.33;;
19111;SDS011;9688;51.906;8.376;2023-04-16T15:26:57;25.00;;;14.50;;
19111;SDS011;9688;51.906;8.376;2023-04-16T15:29:45;23.07;;;14.10;;
19111;SDS011;9688;51.906;8.376;2023-04-16T15:32:32;27.47;;;14.63;;
19111;SDS011;9688;51.906;8.376;2023-04-16T15:35:19;21.33;;;14.87;;
19111;SDS011;9688;51.906;8.376;2023-04-16T15:38:05;21.63;;;13.87;;
19111;SDS011;9688;51.906;8.376;2023-04-16T15:40:51;22.47;;;14.23;;
19111;SDS011;9688;51.906;8.376;2023-04-16T15:43:36;24.00;;;15.77;;
19111;SDS011;9688;51.906;8.376;2023-04-16T15:46:22;20.80;;;14.43;;
19111;SDS011;9688;51.906;8.376;2023-04-16T15:49:08;22.47;;;14.97;;
19111;SDS011;9688;51.906;8.376;2023-04-16T15:51:55;25.80;;;14.40;;
19111;SDS011;9688;51.906;8.376;2023-04-16T15:54:41;22.93;;;14.57;;
19111;SDS011;9688;51.906;8.376;2023-04-16T15:57:27;23.27;;;14.47;;
19111;SDS011;9688;51.906;8.376;2023-04-16T16:00:15;21.40;;;14.13;;
19111;SDS011;9688;51.906;8.376;2023-04-16T16:03:02;24.57;;;15.30;;
19111;SDS011;9688;51.906;8.376;2023-04-16T16:05:48;22.90;;;14.37;;
19111;SDS011;9688;51.906;8.376;2023-04-16T16:08:35;20.80;;;14.43;;
19111;SDS011;9688;51.906;8.376;2023-04-16T16:11:21;20.03;;;13.13;;
19111;SDS011;9688;51.906;8.376;2023-04-16T16:14:07;23.07;;;14.07;;
19111;SDS011;9688;51.906;8.376;2023-04-16T16:16:52;23.70;;;14.70;;
19111;SDS011;9688;51.906;8.376;2023-04-16T16:19:37;21.20;;;13.97;;
19111;SDS011;9688;51.906;8.376;2023-04-16T16:22:23;21.97;;;13.63;;
19111;SDS011;9688;51.906;8.376;2023-04-16T16:25:11;20.47;;;14.07;;
19111;SDS011;9688;51.906;8.376;2023-04-16T16:27:57;23.43;;;14.47;;
19111;SDS011;9688;51.906;8.376;2023-04-16T16:30:43;21.20;;;13.87;;